Time;durP1;ratioP1;P1;durP2;ratioP2;P2;SDS_P1;SDS_P2;PMS_P1;PMS_P2;Temp;Humidity;BMP_temperature;BMP_pressure;BME280_temperature;BME280_humidity;BME280_pressure;Samples;Min_cycle;Max_cycle;Signal;HPM_P1;HPM_P2
2022/08/10 00:01:48;;;;;;;5.38;2.70;;;;;;;18.01;81.88;102617.47;5084337;28;20065;-66
2022/08/10 00:04:19;;;;;;;4.90;2.63;;;;;;;18.05;81.93;102610.97;5072587;28;20213;-57
2022/08/10 00:06:50;;;;;;;4.53;2.53;;;;;;;17.98;82.32;102615.00;5081191;28;20048;-65
2022/08/10 00:09:20;;;;;;;4.95;2.45;;;;;;;17.90;82.67;102610.19;5082592;28;20109;-58
2022/08/10 00:11:50;;;;;;;4.90;2.70;;;;;;;17.92;82.87;102612.78;5068233;28;20037;-65
2022/08/10 00:14:18;;;;;;;4.53;2.40;;;;;;;17.90;82.89;102615.50;5083466;28;20043;-57
2022/08/10 00:16:47;;;;;;;4.82;2.80;;;;;;;17.85;82.74;102608.81;5083337;28;20040;-57
2022/08/10 00:19:15;;;;;;;5.47;2.30;;;;;;;17.89;82.15;102613.78;5079237;28;20098;-57
2022/08/10 00:21:45;;;;;;;7.72;2.50;;;;;;;17.86;82.69;102613.16;5080646;28;20055;-65
2022/08/10 00:24:14;;;;;;;4.75;2.50;;;;;;;17.83;82.55;102614.22;5080382;28;20052;-63
2022/08/10 00:26:43;;;;;;;5.30;2.40;;;;;;;17.72;82.96;102617.63;5083498;28;20062;-59
2022/08/10 00:29:31;;;;;;;4.95;2.28;;;;;;;17.67;83.20;102614.41;5099729;28;20075;-57
2022/08/10 00:32:00;;;;;;;4.00;2.22;;;;;;;17.68;83.09;102604.59;5110111;28;20044;-59
2022/08/10 00:34:29;;;;;;;4.40;2.20;;;;;;;17.60;83.87;102610.47;5079869;28;20068;-57
2022/08/10 00:36:57;;;;;;;3.72;1.90;;;;;;;17.63;83.88;102604.06;5082571;28;20039;-58
2022/08/10 00:39:27;;;;;;;5.57;2.20;;;;;;;17.64;83.88;102608.44;5093618;28;20055;-65
2022/08/10 00:41:57;;;;;;;4.55;2.20;;;;;;;17.65;83.85;102603.00;5093727;28;20063;-65
2022/08/10 00:44:36;;;;;;;4.57;2.25;;;;;;;17.49;84.53;102603.22;5099392;28;20051;-58
2022/08/10 00:47:04;;;;;;;4.35;1.90;;;;;;;17.46;85.18;102602.56;5114265;28;20055;-66
2022/08/10 00:49:33;;;;;;;7.40;2.20;;;;;;;17.61;85.05;102603.34;5112563;28;20054;-65
2022/08/10 00:52:02;;;;;;;3.97;2.13;;;;;;;17.56;84.73;102603.63;5110542;28;20055;-65
2022/08/10 00:54:30;;;;;;;5.53;2.30;;;;;;;17.48;85.41;102601.50;5091032;28;20040;-66
2022/08/10 00:57:00;;;;;;;4.45;2.05;;;;;;;17.44;85.67;102602.66;5082139;28;20052;-58
2022/08/10 00:59:45;;;;;;;4.75;2.10;;;;;;;17.32;86.56;102599.00;5087753;28;20393;-64
2022/08/10 01:02:28;;;;;;;4.30;1.92;;;;;;;17.37;86.46;102596.06;5082420;28;20040;-65
2022/08/10 01:04:58;;;;;;;3.65;1.92;;;;;;;17.46;86.20;102597.22;5082948;28;20487;-64
2022/08/10 01:07:59;;;;;;;3.42;2.20;;;;;;;17.33;86.83;102598.06;5085368;28;20487;-65
2022/08/10 01:10:41;;;;;;;4.15;2.35;;;;;;;17.29;87.56;102599.22;5080088;28;20040;-64
2022/08/10 01:13:19;;;;;;;4.30;2.30;;;;;;;17.26;87.71;102598.53;5079538;28;20097;-64
2022/08/10 01:15:55;;;;;;;3.47;2.00;;;;;;;17.29;87.87;102593.03;5069370;28;20123;-65
2022/08/10 01:18:34;;;;;;;3.95;1.88;;;;;;;17.27;87.67;102600.25;5069415;28;20075;-64
2022/08/10 01:21:43;;;;;;;3.60;1.83;;;;;;;17.22;88.29;102596.09;5082393;28;20093;-57
2022/08/10 01:24:39;;;;;;;3.20;1.80;;;;;;;17.23;88.71;102588.97;5071522;28;20383;-57
2022/08/10 01:27:19;;;;;;;3.45;2.00;;;;;;;17.20;88.89;102597.16;5082431;28;20140;-57
2022/08/10 01:30:00;;;;;;;4.65;2.20;;;;;;;17.18;89.36;102591.94;5077177;28;20046;-56
2022/08/10 01:32:50;;;;;;;2.78;1.88;;;;;;;17.15;89.76;102585.97;5085062;28;20063;-56
2022/08/10 01:35:25;;;;;;;4.30;1.98;;;;;;;17.14;90.04;102578.94;5082414;28;20086;-66
2022/08/10 01:38:02;;;;;;;4.45;2.00;;;;;;;17.19;89.44;102587.47;5068826;28;20048;-57
2022/08/10 01:40:33;;;;;;;2.63;1.90;;;;;;;17.10;90.62;102580.97;5084304;28;20499;-55
2022/08/10 01:43:05;;;;;;;4.72;2.30;;;;;;;17.07;91.08;102583.81;5081185;28;20066;-57
2022/08/10 01:45:41;;;;;;;3.42;2.28;;;;;;;17.08;91.36;102579.34;5080073;28;20138;-57
2022/08/10 01:48:29;;;;;;;5.05;2.40;;;;;;;17.05;91.61;102578.59;5083341;28;20083;-57
2022/08/10 01:51:15;;;;;;;5.13;2.17;;;;;;;16.99;91.98;102576.34;5075969;28;20055;-58
2022/08/10 01:53:50;;;;;;;4.82;2.67;;;;;;;16.95;93.14;102574.00;5074696;28;20059;-64
2022/08/10 01:56:22;;;;;;;6.65;2.70;;;;;;;16.86;93.83;102575.41;5075232;28;20036;-58
2022/08/10 01:58:55;;;;;;;7.47;2.92;;;;;;;16.88;93.45;102563.72;5086737;28;20040;-56
2022/08/10 02:01:29;;;;;;;5.40;2.50;;;;;;;16.89;94.03;102580.53;5071340;28;20396;-64
2022/08/10 02:04:03;;;;;;;5.50;2.88;;;;;;;16.85;94.36;102574.56;5082552;28;20067;-58
2022/08/10 02:06:37;;;;;;;5.53;2.60;;;;;;;16.85;94.25;102573.69;5078663;28;20058;-60
2022/08/10 02:09:07;;;;;;;6.28;2.67;;;;;;;16.88;94.72;102578.81;5083659;28;20059;-64
2022/08/10 02:11:36;;;;;;;5.85;2.97;;;;;;;16.88;94.66;102569.03;5077126;28;20068;-65
2022/08/10 02:14:31;;;;;;;7.95;3.20;;;;;;;16.83;94.82;102567.63;5077394;28;20048;-66
2022/08/10 02:17:06;;;;;;;4.35;2.60;;;;;;;16.78;95.34;102569.72;5070357;28;20044;-64
2022/08/10 02:19:37;;;;;;;6.47;2.90;;;;;;;16.74;95.97;102569.06;5073453;28;20415;-58
2022/08/10 02:22:08;;;;;;;7.28;2.80;;;;;;;16.78;95.44;102570.56;5085732;28;20054;-58
2022/08/10 02:24:58;;;;;;;5.65;2.85;;;;;;;16.74;96.66;102569.06;5088125;28;20036;-58
2022/08/10 02:27:27;;;;;;;4.57;2.75;;;;;;;16.75;96.57;102565.47;5080165;28;20130;-65
2022/08/10 02:29:57;;;;;;;6.63;3.08;;;;;;;16.73;96.16;102565.56;5081744;28;20083;-59
2022/08/10 02:32:29;;;;;;;4.15;2.75;;;;;;;16.80;96.49;102578.47;5079238;28;20040;-65
2022/08/10 02:35:10;;;;;;;6.07;3.00;;;;;;;16.72;96.95;102574.47;5082643;28;20036;-65
2022/08/10 02:37:52;;;;;;;5.63;3.30;;;;;;;16.78;96.70;102577.69;5073892;28;20449;-58
2022/08/10 02:40:24;;;;;;;6.15;3.10;;;;;;;16.72;96.38;102579.78;5081381;28;20052;-57
2022/08/10 02:43:21;;;;;;;5.82;2.70;;;;;;;16.77;96.29;102575.97;5079258;28;20049;-58
2022/08/10 02:46:13;;;;;;;5.40;2.63;;;;;;;16.75;97.03;102580.56;5083609;28;20055;-57
2022/08/10 02:48:56;;;;;;;5.50;3.10;;;;;;;16.67;97.85;102587.19;5083208;28;20051;-59
2022/08/10 02:51:29;;;;;;;6.30;3.13;;;;;;;16.68;97.55;102578.28;5075626;28;20487;-57
2022/08/10 02:54:22;;;;;;;5.05;3.00;;;;;;;16.70;97.51;102576.38;5077608;28;20075;-65
2022/08/10 02:56:54;;;;;;;8.40;3.10;;;;;;;16.70;97.77;102570.22;5078540;28;21019;-57
2022/08/10 02:59:27;;;;;;;6.22;3.15;;;;;;;16.62;98.71;102576.03;5080049;28;20048;-66
2022/08/10 03:02:12;;;;;;;7.68;3.80;;;;;;;16.56;98.91;102571.97;5077599;28;20048;-66
2022/08/10 03:04:44;;;;;;;8.88;3.58;;;;;;;16.46;100.00;102572.63;5079714;28;20508;-65
2022/08/10 03:07:28;;;;;;;7.82;3.85;;;;;;;16.42;100.00;102571.97;5082522;28;20391;-66
2022/08/10 03:10:15;;;;;;;6.57;3.72;;;;;;;16.34;100.00;102574.25;5082599;28;20036;-58
2022/08/10 03:12:45;;;;;;;7.97;4.00;;;;;;;16.37;100.00;102576.69;5080550;28;20040;-65
2022/08/10 03:15:16;;;;;;;6.82;3.72;;;;;;;16.35;100.00;102566.19;5081536;28;20044;-65
2022/08/10 03:17:46;;;;;;;7.68;4.10;;;;;;;16.31;100.00;102572.63;5101377;28;20051;-57
2022/08/10 03:20:31;;;;;;;7.47;4.32;;;;;;;16.22;100.00;102574.06;5096612;28;20048;-65
2022/08/10 03:23:09;;;;;;;8.25;4.68;;;;;;;16.20;100.00;102572.47;5080695;28;20094;-59
2022/08/10 03:25:39;;;;;;;7.95;4.25;;;;;;;16.15;100.00;102574.53;5082444;28;20072;-66
2022/08/10 03:28:08;;;;;;;10.55;4.82;;;;;;;16.11;100.00;102570.38;5084171;28;20044;-65
2022/08/10 03:30:37;;;;;;;8.07;4.35;;;;;;;16.12;100.00;102559.66;5086922;28;20048;-64
2022/08/10 03:33:07;;;;;;;7.03;4.18;;;;;;;16.07;100.00;102564.38;5085606;28;20110;-56
2022/08/10 03:35:37;;;;;;;8.55;4.25;;;;;;;16.03;100.00;102558.44;5077343;28;20044;-57
2022/08/10 03:38:05;;;;;;;7.75;4.80;;;;;;;16.04;100.00;102552.16;5083997;28;20526;-65
2022/08/10 03:40:36;;;;;;;7.93;4.88;;;;;;;16.05;100.00;102559.16;5088400;28;20059;-66
2022/08/10 03:43:16;;;;;;;7.63;5.03;;;;;;;16.03;100.00;102550.47;5083821;28;20127;-57
2022/08/10 03:45:48;;;;;;;8.95;5.18;;;;;;;15.94;100.00;102548.38;5079872;28;20036;-65
2022/08/10 03:48:24;;;;;;;9.00;4.72;;;;;;;15.95;100.00;102551.88;5086130;28;20499;-58
2022/08/10 03:51:15;;;;;;;8.90;5.78;;;;;;;15.92;100.00;102549.41;5085295;28;20136;-65
2022/08/10 03:53:45;;;;;;;10.20;5.35;;;;;;;15.90;100.00;102554.81;5084088;28;20064;-58
2022/08/10 03:56:36;;;;;;;10.00;5.18;;;;;;;15.86;100.00;102548.00;5078050;28;20393;-57
2022/08/10 03:59:08;;;;;;;8.70;5.47;;;;;;;15.82;100.00;102542.00;5080199;28;20060;-57
2022/08/10 04:01:37;;;;;;;9.25;6.35;;;;;;;15.71;100.00;102545.28;5086299;28;20552;-62
2022/08/10 04:04:26;;;;;;;10.40;5.45;;;;;;;15.78;100.00;102547.56;5080178;28;20063;-64
2022/08/10 04:06:57;;;;;;;10.55;6.03;;;;;;;15.70;100.00;102548.84;5083863;28;20032;-57
2022/08/10 04:09:27;;;;;;;11.85;5.82;;;;;;;15.69;100.00;102548.97;5082784;28;20051;-64
2022/08/10 04:12:17;;;;;;;9.18;5.90;;;;;;;15.63;100.00;102550.19;5080686;28;20132;-58
2022/08/10 04:14:46;;;;;;;9.38;6.25;;;;;;;15.67;100.00;102546.41;5080215;28;20068;-64
2022/08/10 04:17:21;;;;;;;10.23;6.13;;;;;;;15.64;100.00;102551.06;5079573;28;20481;-65
2022/08/10 04:20:16;;;;;;;11.45;6.70;;;;;;;15.68;100.00;102549.91;5084957;28;20045;-57
2022/08/10 04:22:49;;;;;;;10.35;6.60;;;;;;;15.65;100.00;102561.56;5079101;28;20036;-58
2022/08/10 04:25:18;;;;;;;;;;;;;;;15.65;100.00;102558.91;5083623;28;20450;-58
2022/08/10 04:27:47;;;;;;;11.25;7.03;;;;;;;15.66;100.00;102559.75;5080063;28;19924;-57
2022/08/10 04:30:15;;;;;;;12.00;7.15;;;;;;;15.67;100.00;102551.69;5085630;28;20479;-56
2022/08/10 04:32:47;;;;;;;10.65;6.68;;;;;;;15.67;100.00;102558.81;5079832;28;20040;-54
2022/08/10 04:35:18;;;;;;;11.80;7.40;;;;;;;15.76;100.00;102546.78;5082892;28;20779;-56
2022/08/10 04:37:50;;;;;;;11.45;6.97;;;;;;;15.71;100.00;102555.03;5092612;28;20048;-55
2022/08/10 04:40:19;;;;;;;12.35;7.15;;;;;;;15.66;100.00;102555.28;5082133;28;20044;-55
2022/08/10 04:42:59;;;;;;;11.10;7.43;;;;;;;15.66;100.00;102562.41;5088090;28;20055;-57
2022/08/10 04:45:30;;;;;;;11.85;7.30;;;;;;;15.62;100.00;102559.06;5093969;28;20085;-64
2022/08/10 04:48:21;;;;;;;11.95;7.53;;;;;;;15.66;100.00;102557.94;5094233;28;20150;-55
2022/08/10 04:51:10;;;;;;;13.15;7.40;;;;;;;15.61;100.00;102553.88;5093579;28;20102;-64
2022/08/10 04:53:50;;;;;;;11.45;7.78;;;;;;;15.62;100.00;102552.94;5093921;28;20507;-63
2022/08/10 04:56:35;;;;;;;13.57;8.15;;;;;;;15.65;100.00;102539.47;5094373;28;20094;-57
2022/08/10 04:59:05;;;;;;;14.63;8.15;;;;;;;15.61;100.00;102552.09;5093453;28;20052;-63
2022/08/10 05:01:34;;;;;;;12.98;8.45;;;;;;;15.64;100.00;102546.59;5093843;28;20047;-63
2022/08/10 05:04:23;;;;;;;14.10;8.32;;;;;;;15.66;100.00;102554.44;5093729;28;20059;-63
2022/08/10 05:07:07;;;;;;;13.38;8.30;;;;;;;15.66;100.00;102555.28;5086342;28;20045;-55
2022/08/10 05:09:38;;;;;;;15.70;8.55;;;;;;;15.75;100.00;102561.00;5102379;28;20048;-54
2022/08/10 05:12:26;;;;;;;13.80;8.40;;;;;;;15.76;100.00;102566.22;5109427;28;20032;-54
2022/08/10 05:14:55;;;;;;;13.15;7.82;;;;;;;15.86;100.00;102561.25;5093242;28;20044;-55
2022/08/10 05:17:28;;;;;;;13.80;9.35;;;;;;;15.86;100.00;102559.44;5094109;28;20127;-56
2022/08/10 05:19:58;;;;;;;14.10;8.25;;;;;;;15.84;100.00;102557.81;5094308;28;20059;-56
2022/08/10 05:22:37;;;;;;;13.27;8.55;;;;;;;15.83;100.00;102553.50;5094197;28;20113;-60
2022/08/10 05:25:09;;;;;;;14.77;8.68;;;;;;;15.89;100.00;102559.25;5094299;28;20537;-57
2022/08/10 05:27:38;;;;;;;13.02;8.65;;;;;;;15.89;100.00;102561.91;5094089;28;20044;-53
2022/08/10 05:30:08;;;;;;;13.13;9.45;;;;;;;15.92;100.00;102562.69;5086713;28;20110;-55
2022/08/10 05:32:40;;;;;;;15.32;9.20;;;;;;;15.87;100.00;102557.66;5080754;28;20127;-52
2022/08/10 05:35:28;;;;;;;13.77;8.70;;;;;;;15.87;100.00;102563.81;5080880;28;20123;-56
2022/08/10 05:38:17;;;;;;;14.48;10.40;;;;;;;15.92;100.00;102560.84;5095447;28;20135;-51
2022/08/10 05:40:49;;;;;;;13.38;8.57;;;;;;;16.01;100.00;102562.13;5087634;28;20045;-56
2022/08/10 05:43:18;;;;;;;12.98;9.27;;;;;;;16.02;100.00;102564.69;5080627;28;20040;-62
2022/08/10 05:45:48;;;;;;;13.35;9.32;;;;;;;16.10;100.00;102571.31;5093199;28;20056;-63
2022/08/10 05:48:37;;;;;;;15.82;9.85;;;;;;;16.12;100.00;102574.72;5088737;28;20067;-63
2022/08/10 05:51:26;;;;;;;14.18;9.18;;;;;;;16.20;100.00;102570.66;5082018;28;20448;-56
2022/08/10 05:53:55;;;;;;;13.02;8.50;;;;;;;16.34;100.00;102574.25;5085514;28;20035;-63
2022/08/10 05:56:36;;;;;;;12.77;8.73;;;;;;;16.37;100.00;102571.41;5082331;28;20036;-64
2022/08/10 05:59:26;;;;;;;14.90;8.93;;;;;;;16.48;100.00;102568.06;5081888;28;20040;-64
2022/08/10 06:02:20;;;;;;;14.93;8.68;;;;;;;16.58;100.00;102568.34;5081359;28;20098;-64
2022/08/10 06:05:07;;;;;;;16.13;9.45;;;;;;;16.63;100.00;102567.09;5076641;28;20124;-65
2022/08/10 06:07:39;;;;;;;12.23;8.93;;;;;;;16.67;100.00;102571.25;5085660;28;20036;-64
2022/08/10 06:10:12;;;;;;;12.80;8.97;;;;;;;16.72;100.00;102568.31;5092193;28;20064;-58
2022/08/10 06:12:46;;;;;;;15.70;9.02;;;;;;;16.73;100.00;102565.56;5083350;28;20044;-56
2022/08/10 06:15:22;;;;;;;13.68;8.20;;;;;;;16.78;100.00;102569.72;5079167;28;20044;-57
2022/08/10 06:18:13;;;;;;;14.23;9.20;;;;;;;16.93;100.00;102570.56;5079708;28;20049;-57
2022/08/10 06:20:42;;;;;;;15.20;8.65;;;;;;;17.00;100.00;102569.22;5077000;28;20036;-57
2022/08/10 06:23:11;;;;;;;14.43;8.98;;;;;;;17.10;100.00;102570.31;5078094;28;20070;-63
2022/08/10 06:25:39;;;;;;;14.70;10.02;;;;;;;17.21;100.00;102564.31;5081846;28;20055;-61
2022/08/10 06:28:33;;;;;;;13.38;9.48;;;;;;;17.30;100.00;102573.47;5084392;28;20093;-57
2022/08/10 06:31:04;;;;;;;17.17;8.70;;;;;;;17.37;100.00;102570.28;5085416;28;20499;-57
2022/08/10 06:33:35;;;;;;;13.75;9.10;;;;;;;17.55;100.00;102570.03;5072298;28;20048;-64
2022/08/10 06:36:05;;;;;;;13.23;8.85;;;;;;;17.66;100.00;102567.47;5079970;28;20403;-63
2022/08/10 06:38:36;;;;;;;17.65;9.20;;;;;;;17.79;100.00;102569.28;5092259;28;20078;-58
2022/08/10 06:41:08;;;;;;;15.05;8.73;;;;;;;17.90;100.00;102566.72;5092235;28;20051;-58
2022/08/10 06:43:40;;;;;;;;;;;;;;;18.01;100.00;102572.22;5091241;28;20514;-57
2022/08/10 06:46:15;;;;;;;12.52;7.75;;;;;;;18.07;99.91;102566.44;5088719;28;20380;-58
2022/08/10 06:48:50;;;;;;;12.18;8.35;;;;;;;18.17;98.58;102577.28;5079732;28;20048;-65
2022/08/10 06:51:23;;;;;;;13.63;8.75;;;;;;;18.30;98.26;102576.47;5082457;28;20047;-64
2022/08/10 06:53:54;;;;;;;14.40;8.00;;;;;;;18.44;96.41;102570.16;5088631;28;20059;-64
2022/08/10 06:56:24;;;;;;;13.02;8.40;;;;;;;18.56;96.62;102580.75;5089553;28;20055;-62
2022/08/10 06:59:16;;;;;;;12.45;7.85;;;;;;;18.69;95.74;102566.53;5076196;28;20048;-63
2022/08/10 07:01:54;;;;;;;12.15;7.82;;;;;;;18.86;94.67;102570.66;5076108;28;20048;-58
2022/08/10 07:04:25;;;;;;;14.38;8.07;;;;;;;18.98;92.87;102575.13;5085927;28;20051;-64
2022/08/10 07:07:04;;;;;;;14.70;8.05;;;;;;;19.20;92.92;102576.19;5089112;28;20105;-64
2022/08/10 07:09:35;;;;;;;12.73;7.00;;;;;;;19.34;90.81;102577.81;5083228;28;20384;-57
2022/08/10 07:12:07;;;;;;;12.17;6.80;;;;;;;19.54;91.15;102570.97;5094351;28;20044;-64
2022/08/10 07:14:43;;;;;;;11.87;8.10;;;;;;;19.64;87.94;102574.63;5096314;28;20854;-59
2022/08/10 07:17:12;;;;;;;12.75;7.32;;;;;;;19.81;87.92;102573.38;5096319;28;20040;-58
2022/08/10 07:19:46;;;;;;;11.50;7.13;;;;;;;19.91;87.18;102561.00;5095191;28;20052;-58
2022/08/10 07:22:20;;;;;;;11.00;7.40;;;;;;;20.09;85.80;102574.72;5088945;28;20055;-59
2022/08/10 07:25:11;;;;;;;13.18;7.80;;;;;;;20.28;84.74;102567.94;5084399;28;20121;-57
2022/08/10 07:27:40;;;;;;;10.65;7.03;;;;;;;20.47;83.84;102579.81;5082239;28;20051;-63
2022/08/10 07:30:32;;;;;;;11.05;6.72;;;;;;;20.69;82.83;102574.47;5082443;28;20078;-64
2022/08/10 07:33:02;;;;;;;11.37;6.67;;;;;;;20.84;81.43;102574.19;5079492;28;20642;-58
2022/08/10 07:35:32;;;;;;;10.95;7.07;;;;;;;21.03;80.34;102568.19;5080646;28;20449;-58
2022/08/10 07:38:13;;;;;;;13.10;6.90;;;;;;;21.18;79.47;102574.06;5078299;28;20521;-65
2022/08/10 07:40:43;;;;;;;9.77;6.15;;;;;;;21.30;79.46;102569.50;5076139;28;20462;-63
2022/08/10 07:43:14;;;;;;;11.68;7.15;;;;;;;21.36;78.08;102575.19;5083501;28;20040;-64
2022/08/10 07:45:44;;;;;;;9.65;6.28;;;;;;;21.55;77.82;102569.16;5078849;28;20067;-64
2022/08/10 07:48:16;;;;;;;12.60;7.00;;;;;;;21.78;77.29;102574.38;5078839;28;20044;-64
2022/08/10 07:50:46;;;;;;;10.90;6.77;;;;;;;21.95;76.54;102576.47;5091326;28;20040;-58
2022/08/10 07:53:21;;;;;;;11.82;7.03;;;;;;;22.11;75.14;102578.66;5088969;28;20058;-58
2022/08/10 07:55:51;;;;;;;10.30;6.65;;;;;;;22.28;74.04;102573.66;5086036;28;20090;-64
2022/08/10 07:58:44;;;;;;;11.98;7.05;;;;;;;22.40;73.30;102577.94;5083966;28;20051;-58
2022/08/10 08:01:23;;;;;;;11.43;7.53;;;;;;;22.50;72.46;102577.13;5083249;28;20079;-58
2022/08/10 08:03:53;;;;;;;11.13;6.60;;;;;;;22.70;72.18;102575.31;5078582;28;20070;-57
2022/08/10 08:06:40;;;;;;;11.00;6.47;;;;;;;22.90;71.95;102574.38;5085829;28;20052;-58
2022/08/10 08:09:09;;;;;;;10.68;5.93;;;;;;;23.04;69.85;102565.06;5083862;28;20045;-63
2022/08/10 08:11:39;;;;;;;9.93;6.28;;;;;;;23.17;69.66;102559.44;5078413;28;20055;-63
2022/08/10 08:14:09;;;;;;;10.52;6.45;;;;;;;23.36;69.31;102561.25;5078574;28;20052;-64
2022/08/10 08:16:43;;;;;;;11.00;6.32;;;;;;;23.64;69.02;102564.03;5082824;28;20048;-63
2022/08/10 08:19:12;;;;;;;11.05;6.13;;;;;;;23.82;67.29;102556.09;5091949;28;20050;-64
2022/08/10 08:22:01;;;;;;;10.30;5.47;;;;;;;24.01;65.93;102554.34;5085346;28;20041;-57
2022/08/10 08:24:51;;;;;;;11.48;6.20;;;;;;;24.28;65.18;102556.19;5079238;28;20048;-58
2022/08/10 08:27:21;;;;;;;10.13;5.90;;;;;;;24.38;65.90;102557.00;5087672;28;20049;-57
2022/08/10 08:29:51;;;;;;;11.60;6.40;;;;;;;24.56;63.57;102564.25;5078214;28;20040;-64
2022/08/10 08:32:24;;;;;;;11.13;6.10;;;;;;;24.70;64.11;102558.38;5084673;28;20040;-63
2022/08/10 08:34:55;;;;;;;;;;;;;;;24.95;63.30;102564.00;5079228;28;20048;-64
2022/08/10 08:37:27;;;;;;;10.18;5.55;;;;;;;25.15;60.85;102564.69;5084282;28;20292;-63
2022/08/10 08:40:23;;;;;;;8.48;5.40;;;;;;;25.35;60.82;102557.31;5082806;28;20368;-58
2022/08/10 08:43:21;;;;;;;9.32;5.18;;;;;;;25.50;59.48;102560.28;5082090;28;20032;-58
2022/08/10 08:46:18;;;;;;;10.93;4.90;;;;;;;25.71;57.45;102551.81;5079177;28;20051;-58
2022/08/10 08:49:11;;;;;;;8.35;4.75;;;;;;;25.89;58.19;102559.00;5074920;28;20045;-64
2022/08/10 08:52:13;;;;;;;11.75;4.88;;;;;;;26.01;57.69;102563.09;5079365;28;20036;-64
2022/08/10 08:54:57;;;;;;;8.82;5.00;;;;;;;26.21;56.41;102554.81;5081484;28;20079;-64
2022/08/10 08:57:37;;;;;;;7.53;5.03;;;;;;;26.33;56.52;102561.59;5083436;28;20067;-63
2022/08/10 09:00:28;;;;;;;10.20;4.78;;;;;;;26.45;54.46;102554.03;5093696;28;20429;-63
2022/08/10 09:03:20;;;;;;;9.50;3.97;;;;;;;26.51;54.28;102552.53;5086586;28;20131;-63
2022/08/10 09:06:06;;;;;;;9.90;4.30;;;;;;;26.64;54.34;102544.78;5081146;28;20782;-63
2022/08/10 09:09:20;;;;;;;8.40;3.83;;;;;;;26.89;53.27;102545.72;5070238;28;20098;-64
2022/08/10 09:12:02;;;;;;;8.00;4.32;;;;;;;27.07;51.91;102540.16;5062546;28;20086;-64
2022/08/10 09:14:37;;;;;;;8.52;4.10;;;;;;;27.12;51.64;102542.34;5083679;28;20052;-58
2022/08/10 09:17:18;;;;;;;9.18;3.80;;;;;;;27.22;51.53;102545.72;5081180;28;20067;-65
2022/08/10 09:19:54;;;;;;;8.98;4.22;;;;;;;27.49;50.70;102544.53;5082736;28;20045;-57
2022/08/10 09:22:32;;;;;;;9.75;3.97;;;;;;;27.74;50.81;102543.63;5074680;28;20044;-64
2022/08/10 09:25:12;;;;;;;7.68;3.40;;;;;;;27.82;50.30;102544.44;5080365;28;20512;-57
2022/08/10 09:27:44;;;;;;;7.00;3.50;;;;;;;27.98;48.02;102540.84;5082626;28;20040;-58
2022/08/10 09:30:24;;;;;;;7.78;3.88;;;;;;;28.19;48.30;102536.72;5076012;28;20044;-57
2022/08/10 09:33:07;;;;;;;7.57;3.33;;;;;;;28.39;47.28;102528.19;5082368;28;20051;-63
2022/08/10 09:36:06;;;;;;;6.82;3.00;;;;;;;28.61;47.90;102523.81;5093300;28;20047;-64
2022/08/10 09:39:05;;;;;;;7.22;3.42;;;;;;;28.87;45.05;102520.75;5072449;28;20060;-57
2022/08/10 09:41:45;;;;;;;5.95;2.88;;;;;;;28.92;45.45;102522.91;5090022;28;20052;-63
2022/08/10 09:44:22;;;;;;;6.38;2.60;;;;;;;29.12;43.76;102518.69;5093125;28;20040;-63
2022/08/10 09:47:18;;;;;;;4.47;2.30;;;;;;;29.26;42.71;102519.75;5093309;28;20139;-58
2022/08/10 09:50:02;;;;;;;6.38;2.50;;;;;;;29.39;42.57;102523.69;5095359;28;20047;-58
2022/08/10 09:52:40;;;;;;;5.85;2.50;;;;;;;29.40;41.29;102518.09;5113551;27;20422;-57
2022/08/10 09:55:23;;;;;;;6.43;2.83;;;;;;;29.27;41.24;102512.47;5093050;28;20048;-63
2022/08/10 09:58:35;;;;;;;4.78;2.10;;;;;;;29.55;41.57;102506.44;5087973;28;20116;-58
2022/08/10 10:01:11;;;;;;;3.83;1.70;;;;;;;29.87;40.61;102510.63;5073419;28;20094;-57
2022/08/10 10:04:07;;;;;;;4.38;2.03;;;;;;;29.48;41.64;102500.91;5089519;28;20032;-58
2022/08/10 10:06:40;;;;;;;4.85;1.80;;;;;;;29.78;41.31;102507.16;5086869;28;20142;-57
2022/08/10 10:09:14;;;;;;;5.20;1.80;;;;;;;30.06;40.09;102492.09;5081270;28;20487;-61
2022/08/10 10:12:06;;;;;;;5.38;1.90;;;;;;;30.19;39.65;102494.97;5090058;28;20040;-57
2022/08/10 10:17:43;;;;;;;3.13;1.65;;;;;;;30.36;37.17;102490.13;5065085;28;20105;-57
2022/08/10 10:20:24;;;;;;;5.95;1.70;;;;;;;30.56;33.97;102474.06;5080744;28;20040;-58
2022/08/10 10:23:01;;;;;;;3.47;1.47;;;;;;;30.35;33.95;102485.75;5084355;28;20052;-57
2022/08/10 10:25:42;;;;;;;5.32;1.77;;;;;;;30.60;35.50;102471.81;5070449;28;20064;-62
2022/08/10 10:28:33;;;;;;;3.08;1.58;;;;;;;30.77;34.74;102467.78;5080982;28;20036;-58
2022/08/10 10:31:30;;;;;;;4.03;1.80;;;;;;;30.90;35.49;102463.50;5079344;28;20538;-62
2022/08/10 10:34:09;;;;;;;5.15;1.52;;;;;;;31.23;35.26;102462.94;5081180;28;20541;-59
2022/08/10 10:36:42;;;;;;;5.03;1.67;;;;;;;31.17;31.90;102465.41;5079049;28;20423;-58
2022/08/10 10:39:13;;;;;;;3.17;1.35;;;;;;;31.20;33.02;102466.88;5078429;28;20059;-62
2022/08/10 10:41:51;;;;;;;4.60;1.50;;;;;;;31.52;33.33;102457.25;5080426;28;20139;-58
2022/08/10 10:44:42;;;;;;;4.97;1.70;;;;;;;31.62;32.17;102461.47;5081668;28;20123;-58
2022/08/10 10:47:32;;;;;;;5.07;1.70;;;;;;;31.89;32.84;102456.16;5076897;28;20118;-62
2022/08/10 10:50:06;;;;;;;3.03;1.70;;;;;;;31.73;32.91;102454.63;5077188;28;20090;-59
2022/08/10 10:52:45;;;;;;;3.55;1.45;;;;;;;31.97;32.10;102450.53;5078846;28;20055;-59
2022/08/10 10:55:18;;;;;;;6.20;1.63;;;;;;;32.22;32.84;102448.13;5079022;28;20054;-62
2022/08/10 10:57:55;;;;;;;4.40;1.65;;;;;;;32.14;31.43;102446.41;5079834;28;20040;-58
2022/08/10 11:00:34;;;;;;;3.97;1.90;;;;;;;32.40;32.27;102441.25;5077963;28;20071;-62
2022/08/10 11:03:34;;;;;;;4.47;1.80;;;;;;;32.55;31.08;102438.31;5084878;28;20045;-61
2022/08/10 11:06:14;;;;;;;3.15;1.48;;;;;;;32.71;30.43;102432.47;5092253;28;20093;-58
2022/08/10 11:08:49;;;;;;;3.47;1.60;;;;;;;32.74;30.56;102425.75;5092128;28;20505;-62
2022/08/10 11:11:25;;;;;;;4.18;1.60;;;;;;;32.81;30.08;102418.44;5091990;28;20068;-57
2022/08/10 11:14:25;;;;;;;3.30;1.50;;;;;;;32.89;30.63;102422.81;5092000;28;20552;-62
2022/08/10 11:17:04;;;;;;;4.07;1.60;;;;;;;32.92;30.22;102423.22;5091981;28;20415;-57
2022/08/10 11:19:40;;;;;;;2.38;1.38;;;;;;;33.12;31.05;102416.88;5091709;28;20048;-58
2022/08/10 11:22:34;;;;;;;4.10;1.63;;;;;;;33.28;28.77;102416.47;5091749;28;20052;-58
2022/08/10 11:25:11;;;;;;;4.70;1.70;;;;;;;33.52;28.77;102412.16;5091821;28;20357;-57
2022/08/10 11:27:48;;;;;;;1.90;1.20;;;;;;;33.74;28.75;102414.56;5091682;28;20483;-63
2022/08/10 11:30:20;;;;;;;2.40;1.30;;;;;;;33.93;27.89;102412.81;5091943;28;20040;-62
2022/08/10 11:33:12;;;;;;;3.22;1.30;;;;;;;33.88;27.08;102420.00;5091680;28;20059;-59
2022/08/10 11:35:45;;;;;;;4.28;1.33;;;;;;;33.92;26.54;102421.22;5094629;28;20036;-59
2022/08/10 11:38:22;;;;;;;2.55;1.30;;;;;;;34.07;26.90;102419.03;5095931;28;20048;-63
2022/08/10 11:41:09;;;;;;;4.35;1.52;;;;;;;34.10;26.40;102418.59;5095347;28;20131;-59
2022/08/10 11:44:06;;;;;;;2.63;1.50;;;;;;;34.41;25.89;102416.09;5093853;28;20056;-60
2022/08/10 11:46:39;;;;;;;2.35;1.40;;;;;;;34.47;25.01;102405.13;5093335;28;20044;-57
2022/08/10 11:49:09;;;;;;;;;;;;;;;34.77;26.12;102403.56;5095192;28;20530;-62
2022/08/10 11:51:44;;;;;;;3.80;1.80;;;;;;;34.87;24.89;102406.66;5095763;28;20260;-59
2022/08/10 11:54:24;;;;;;;4.18;1.40;;;;;;;34.93;24.98;102396.72;5095727;28;20407;-59
2022/08/10 11:56:54;;;;;;;3.42;1.17;;;;;;;35.32;25.71;102400.91;5094984;28;20520;-58
2022/08/10 12:02:29;;;;;;;5.10;1.50;;;;;;;35.33;25.89;102388.09;5094951;28;20563;-62
2022/08/10 12:05:02;;;;;;;3.22;1.45;;;;;;;35.26;25.57;102388.16;5094646;28;20400;-63
2022/08/10 12:07:33;;;;;;;5.07;1.63;;;;;;;35.36;25.13;102387.63;5094948;28;20048;-61
2022/08/10 12:10:23;;;;;;;3.22;1.30;;;;;;;35.23;23.72;102383.13;5094813;28;20067;-61
2022/08/10 12:12:58;;;;;;;3.10;1.48;;;;;;;35.54;25.30;102384.00;5094662;28;20040;-58
2022/08/10 12:15:34;;;;;;;2.50;1.17;;;;;;;35.50;24.34;102375.44;5094614;28;20050;-58
2022/08/10 12:18:12;;;;;;;5.05;1.30;;;;;;;35.48;23.71;102380.31;5094661;28;20056;-58